Terminal Aerodrome Forecast
Issued by NWS Des Moines, IA

Home | Current Version | Previous Version | Text Only | Print | Product List | Glossary On
Versions: 1 2 3 4 5 6 7 8 9 10 11 12 13 14 15 16 17 18 19 20 21 22 23 24 25 26
000
FTUS43 KDMX 290520
TAFDSM
TAF
KDSM 290520Z 2906/3006 16014KT P6SM SKC
     FM291000 18018G26KT P6SM -SHRA SCT015 BKN060
     FM291400 24020G28KT P6SM BKN040
     FM291800 31026G34KT P6SM SCT040
     FM300000 31010KT P6SM SCT200=

USA.gov is the U.S. government's official web portal to all federal, state and local government web resources and services.